Flight Track Log - Related Links

Times and Time Zones

All times are in EDT time to prevent confusion due to time zone crossing. See the ASA525 flight status page for this flight to view local times or setup timezone preferences in your user account.

Time Position Orientation Groundspeed Altitude Reporting Facility
EDT Latitude Longitude Course Direction KTS MPH feet Rate Location/Type
Wed 02:12:49 PM 34.1636 -118.3758 338° Northwest 188 216 2,500  Level Los Angeles Center
Wed 02:13:51 PM 34.1389 -118.4403 245° Southwest 231 266 5,200 2,371 Climbing Los Angeles Center
Wed 02:14:53 PM 34.1792 -118.5139 303° West 264 304 7,400 2,400 Climbing Los Angeles Center
Wed 02:15:56 PM 34.2522 -118.5531 336° Northwest 290 334 10,200 2,064 Climbing Los Angeles Center
Wed 02:16:58 PM 34.3581 -118.5967 341° North 338 389 11,700 1,597 Climbing Los Angeles Center
Wed 02:18:00 PM 34.7182 -118.8091 338° Northwest  Level FlightAware Approximate
Wed 02:18:00 PM 34.4614 -118.6394 341° North 391 450 13,500  Level Los Angeles Center
Wed 02:19:02 PM 34.5711 -118.6814 343° North 414 476 15,800 2,323 Climbing Los Angeles Center
Wed 02:20:04 PM 34.6819 -118.7286 341° North 424 488 18,300 2,177 Climbing Los Angeles Center
Wed 02:21:06 PM 34.7997 -118.7678 345° North 440 506 20,300 2,129 Climbing Los Angeles Center
Wed 02:22:08 PM 34.9392 -118.8072 347° North 448 516 22,700 1,984 Climbing Los Angeles Center
Wed 02:23:10 PM 35.0642 -118.8447 346° North 457 526 24,400 1,452 Climbing Los Angeles Center
Wed 02:24:12 PM 35.1936 -118.8831 346° North 474 545 25,700 1,248 Climbing Los Angeles Center
Wed 02:25:15 PM 35.3289 -118.9253 346° North 496 571 27,000 1,632 Climbing Los Angeles Center
Wed 02:26:17 PM 35.4900 -118.9739 346° North 499 574 29,100 1,795 Climbing Los Angeles Center
Wed 02:27:22 PM 35.6239 -119.0139 346° North 497 572 30,800 1,606 Climbing Los Angeles Center
Wed 02:28:24 PM 35.7553 -119.0547 346° North 491 565 32,500 1,776 Climbing Los Angeles Center
Wed 02:29:27 PM 35.8864 -119.0936 346° North 488 562 34,500 1,479 Climbing Los Angeles Center
Wed 02:30:46 PM 36.0603 -119.1461 346° North 474 545 36,000 643 Climbing Oakland Center
Wed 02:31:47 PM 36.1878 -119.1856 346° North 473 544 36,000  Level Oakland Center
Wed 02:32:49 PM 36.3136 -119.2250 346° North 471 542 36,000  Level Oakland Center
Wed 02:33:50 PM 36.4644 -119.2719 346° North 468 539 36,000 -49 Level Oakland Center
Wed 02:34:52 PM 36.5906 -119.3097 346° North 467 537 35,900 -49 Descending Oakland Center
Wed 02:35:53 PM 36.7158 -119.3503 345° North 467 537 35,900  Level Oakland Center
Wed 02:36:54 PM 36.8406 -119.3900 346° North 465 535 35,900 49 Level Oakland Center
Wed 02:37:56 PM 36.9658 -119.4264 347° North 464 534 36,000  Climbing Oakland Center
Wed 02:38:57 PM 37.0917 -119.4658 346° North 468 539 35,900  Descending Oakland Center
Wed 02:39:58 PM 37.2189 -119.5058 346° North 471 542 36,000 49 Climbing Oakland Center
Wed 02:41:00 PM 37.3544 -119.5492 346° North 469 540 36,000  Level Oakland Center
Wed 02:42:01 PM 37.4811 -119.5900 346° North 470 541 36,000  Level Oakland Center
Wed 02:43:03 PM 37.6081 -119.6300 346° North 471 542 36,000  Level Oakland Center
Wed 02:44:04 PM 37.7347 -119.6711 346° North 471 542 36,000  Level Oakland Center
Wed 02:45:05 PM 37.8614 -119.7117 346° North 470 541 36,000  Level Oakland Center
Wed 02:46:07 PM 38.0139 -119.7608 346° North 473 544 36,000  Level Oakland Center
Wed 02:47:08 PM 38.1414 -119.8031 345° North 474 545 36,000  Level Oakland Center
Wed 02:48:09 PM 38.2689 -119.8439 346° North 473 544 36,000  Level Oakland Center
Wed 02:49:11 PM 38.3964 -119.8858 346° North 474 545 36,000  Level Oakland Center
Wed 02:50:12 PM 38.5228 -119.9267 346° North 471 542 36,000  Level Oakland Center
Wed 02:51:14 PM 38.6503 -119.9686 346° North 476 548 36,000  Level Oakland Center
Wed 02:52:15 PM 38.7775 -120.0117 345° North 475 547 36,000  Level Oakland Center
Wed 02:53:16 PM 38.9064 -120.0539 346° North 477 549 36,000  Level Oakland Center
Wed 02:54:18 PM 39.0394 -120.0992 345° North 474 545 36,000  Level Oakland Center
Wed 02:55:19 PM 39.1842 -120.1458 346° North 470 541 36,000  Level Oakland Center
Wed 02:56:20 PM 39.3097 -120.1889 345° North 467 537 36,000  Level Oakland Center
Wed 02:57:22 PM 39.4364 -120.2311 346° North 470 541 36,000  Level Oakland Center
Wed 02:58:23 PM 39.5636 -120.2750 345° North 472 543 36,000  Level Oakland Center
Wed 02:59:24 PM 39.6878 -120.3169 345° North 467 537 36,000  Level Oakland Center
Wed 03:00:25 PM 39.8144 -120.3606 345° North 471 542 36,000  Level Oakland Center
Wed 03:01:27 PM 39.9414 -120.4028 346° North 470 541 36,000  Level Oakland Center
Wed 03:02:28 PM 40.0803 -120.4531 345° North 469 540 36,000  Level Oakland Center
Wed 03:03:29 PM 40.2108 -120.4950 346° North 469 540 36,000  Level Oakland Center
Wed 03:04:30 PM 40.3347 -120.5378 345° North 465 535 36,000  Level Oakland Center
Wed 03:05:32 PM 40.4589 -120.5803 345° North 463 533 36,000  Level Oakland Center
Wed 03:06:41 PM 40.6122 -120.6350 345° North 460 529 36,000  Level Seattle Center
Wed 03:07:34 PM 40.7086 -120.6681 345° North 465 535 36,000  Level Oakland Center
Wed 03:08:35 PM 40.8317 -120.7122 345° North 461 531 36,000  Level Oakland Center
Wed 03:09:37 PM 40.9792 -120.7631 345° North 458 527 36,000  Level Oakland Center
Wed 03:10:38 PM 41.1039 -120.8081 345° North 463 533 36,000  Level Oakland Center
Wed 03:11:39 PM 41.2281 -120.8519 345° North 463 533 36,000 585 Level Oakland Center
Wed 03:12:41 PM 41.3514 -120.8958 345° North 460 529 37,200 923 Climbing Oakland Center
Wed 03:13:49 PM 41.4989 -120.9511 344° North 455 524 38,000 372 Climbing Seattle Center
Wed 03:14:50 PM 41.6203 -120.9947 345° North 453 521 38,000  Level Seattle Center
Wed 03:15:51 PM 41.7428 -121.0394 345° North 460 529 38,000  Level Seattle Center
Wed 03:16:52 PM 41.8633 -121.0836 345° North 454 522 38,000  Level Seattle Center
Wed 03:17:54 PM 41.9839 -121.1269 345° North 451 519 38,000  Level Seattle Center
Wed 03:18:55 PM 42.1058 -121.1717 345° North 457 526 38,000  Level Seattle Center
Wed 03:19:56 PM 42.2272 -121.2158 345° North 453 521 38,000  Level Seattle Center
Wed 03:20:57 PM 42.3483 -121.2606 345° North 456 525 38,000  Level Seattle Center
Wed 03:21:58 PM 42.4947 -121.3139 345° North 457 526 38,000  Level Seattle Center
Wed 03:22:59 PM 42.6172 -121.3611 344° North 459 528 38,000  Level Seattle Center
Wed 03:24:01 PM 42.7378 -121.4067 344° North 455 524 38,000  Level Seattle Center
Wed 03:25:02 PM 42.8583 -121.4528 344° North 452 520 38,000  Level Seattle Center
Wed 03:26:03 PM 42.9794 -121.4997 344° North 453 521 38,000  Level Seattle Center
Wed 03:27:04 PM 43.1003 -121.5414 346° North 452 520 38,000  Level Seattle Center
Wed 03:28:05 PM 43.2208 -121.5897 344° North 453 521 38,000  Level Seattle Center
Wed 03:29:07 PM 43.3419 -121.6361 344° North 455 524 38,000  Level Seattle Center
Wed 03:30:08 PM 43.4633 -121.6808 345° North 455 524 38,000  Level Seattle Center
Wed 03:31:09 PM 43.6094 -121.7386 344° North 456 525 38,000  Level Seattle Center
Wed 03:32:10 PM 43.7308 -121.7847 345° North 457 526 38,000  Level Seattle Center
Wed 03:33:11 PM 43.8433 -121.8250 346° North 453 521 38,000  Level Seattle Center
Wed 03:34:13 PM 43.9636 -121.8711 345° North 448 516 38,000  Level Seattle Center
Wed 03:35:14 PM 44.0953 -121.9228 344° North 453 521 38,000  Level Seattle Center
Wed 03:36:15 PM 44.2161 -121.9706 344° North 455 524 38,000  Level Seattle Center
Wed 03:37:16 PM 44.3408 -122.0206 344° North 462 532 38,000  Level Seattle Center
Wed 03:38:17 PM 44.4647 -122.0692 344° North 466 536 38,000  Level Seattle Center
Wed 03:39:19 PM 44.5864 -122.1183 344° North 461 531 38,000  Level Seattle Center
Wed 03:40:20 PM 44.7094 -122.1675 344° North 461 531 38,000  Level Seattle Center
Wed 03:41:21 PM 44.8581 -122.2264 344° North 464 534 38,000 -49 Level Seattle Center
Wed 03:42:22 PM 44.9711 -122.2722 344° North 462 532 37,900 -49 Descending Seattle Center
Wed 03:43:23 PM 45.0939 -122.3222 344° North 464 534 37,900  Level Seattle Center
Wed 03:44:25 PM 45.2133 -122.3711 344° North 456 525 37,900  Level Seattle Center
Wed 03:45:26 PM 45.3319 -122.4203 344° North 448 516 37,900  Level Seattle Center
Wed 03:46:27 PM 45.4506 -122.4681 344° North 447 514 37,900  Level Seattle Center
Wed 03:47:28 PM 45.5942 -122.5272 344° North 450 518 37,900  Level Seattle Center
Wed 03:48:30 PM 45.7142 -122.5761 344° North 451 519 37,900 -780 Level Seattle Center
Wed 03:49:31 PM 45.8378 -122.6119 349° North 460 529 36,300 -2,311 Descending Seattle Center
Wed 03:50:32 PM 45.9656 -122.6439 350° North 467 537 33,200 -2,902 Descending Seattle Center
Wed 03:51:33 PM 46.0958 -122.6764 350° North 475 547 30,400 -2,537 Descending Seattle Center
Wed 03:52:35 PM 46.2278 -122.7033 352° North 470 541 28,000 -2,341 Descending Seattle Center
Wed 03:53:36 PM 46.3533 -122.7208 355° North 462 532 25,600 -2,361 Descending Seattle Center
Wed 03:54:37 PM 46.4792 -122.7183 North 458 527 23,200 -2,488 Descending Seattle Center
Wed 03:55:39 PM 46.6228 -122.7125 North 436 502 20,500 -2,321 Descending Seattle Center
Wed 03:56:54 PM 46.7603 -122.7064 North 385 443 17,900 -1,820 Descending Seattle Center
Wed 03:57:41 PM 46.8383 -122.6767 15° North 378 435 16,800 -1,778 Descending Seattle Center
Wed 03:58:42 PM 46.9275 -122.5736 38° Northeast 376 433 14,700 -1,902 Descending Seattle Center
Wed 03:59:44 PM 47.0200 -122.5261 19° North 355 409 12,900 -1,556 Descending Seattle Center
Wed 04:00:57 PM 47.1344 -122.4914 12° North 341 392 11,200 -1,426 Descending Seattle Center
Wed 04:01:46 PM 47.2069 -122.4764 North 337 388 10,000 -1,309 Descending Seattle Center
Wed 04:02:47 PM 47.2967 -122.4328 18° North 317 365 8,800 -934 Descending Seattle Center
Wed 04:03:48 PM 47.3753 -122.4211 North 281 323 8,100 -488 Descending Seattle Center
Wed 04:04:50 PM 47.4478 -122.4192 North 259 298 7,800 -537 Descending Seattle Center
Wed 04:05:51 PM 47.5194 -122.4186 360° North 255 293 7,000 -689 Descending Seattle Center
Wed 04:06:52 PM 47.5906 -122.4192 360° North 256 295 6,400 -492 Descending Seattle Center
Wed 04:07:53 PM 47.6619 -122.4175 North 240 276 6,000 -197 Descending Seattle Center
Wed 04:08:54 PM 47.7256 -122.4153 North 231 266 6,000 49 Level Seattle Center
Wed 04:09:55 PM 47.7900 -122.4036 North 240 276 6,100  Climbing Seattle Center
Wed 04:10:57 PM 47.7783 -122.3342 104° East 199 229 6,000 -341 Descending Seattle Center
Wed 04:11:58 PM 47.7242 -122.3150 167° South 186 214 5,400 -787 Descending Seattle Center
Wed 04:12:59 PM 47.6706 -122.3172 182° South 194 223 4,400 -934 Descending Seattle Center
Wed 04:14:00 PM 47.6183 -122.3169 180° South 193 222 3,500 -984 Descending Seattle Center
Wed 04:15:01 PM 47.5664 -122.3172 180° South 191 220 2,400 -984 Descending Seattle Center
Wed 04:16:02 PM 47.5172 -122.3178 180° South 180 207 1,500 -836 Descending Seattle Center
Wed 04:17:03 PM 47.4747 -122.3183 181° South 143 165 700 -492 Descending Seattle Center
Wed 04:18:04 PM 47.4397 -122.3192 181° South 139 160 500 -197 Descending Seattle Center

Login

Don't have an account? Register now (free) for customized features, flight alerts, and more!